Time;durP1;ratioP1;P1;durP2;ratioP2;P2;SDS_P1;SDS_P2;PMS_P1;PMS_P2;Temp;Humidity;BMP_temperature;BMP_pressure;BME280_temperature;BME280_humidity;BME280_pressure;Samples;Min_cycle;Max_cycle;Signal;HPM_P1;HPM_P2
2021/01/09 00:00:42;;;;;;;7.47;3.70;;;;;;;0.75;92.01;101443.56;5012597;28;20034;-66
2021/01/09 00:03:07;;;;;;;9.13;4.27;;;;;;;0.71;92.09;101450.78;5013429;28;20732;-66
2021/01/09 00:05:32;;;;;;;8.03;4.73;;;;;;;0.65;92.18;101445.00;5012172;28;20347;-66
2021/01/09 00:07:58;;;;;;;8.67;4.50;;;;;;;0.72;91.87;101447.19;5013137;28;20038;-66
2021/01/09 00:10:23;;;;;;;10.93;4.47;;;;;;;0.76;92.01;101450.53;5013278;28;20062;-66
2021/01/09 00:12:48;;;;;;;9.77;4.23;;;;;;;0.69;91.89;101454.41;5013241;28;20068;-66
2021/01/09 00:15:14;;;;;;;6.90;3.70;;;;;;;0.72;92.15;101455.09;5013187;28;20425;-66
2021/01/09 00:17:39;;;;;;;9.88;5.53;;;;;;;0.77;92.08;101452.22;5012001;28;20447;-66
2021/01/09 00:20:12;;;;;;;8.03;4.27;;;;;;;0.82;91.97;101455.47;5013043;28;20041;-66
2021/01/09 00:22:39;;;;;;;7.75;4.03;;;;;;;0.79;91.89;101450.34;5012036;28;20099;-66
2021/01/09 00:25:06;;;;;;;13.00;4.00;;;;;;;0.81;91.87;101459.84;5012072;28;20128;-66
2021/01/09 00:27:31;;;;;;;9.05;4.10;;;;;;;0.81;91.96;101459.00;5012575;28;20082;-66
2021/01/09 00:29:56;;;;;;;8.50;4.17;;;;;;;0.82;91.89;101468.63;5012160;28;20045;-66
2021/01/09 00:32:22;;;;;;;6.67;3.93;;;;;;;0.80;92.03;101458.16;5012909;28;20044;-66
2021/01/09 00:34:47;;;;;;;9.60;4.57;;;;;;;0.75;91.87;101459.34;5011861;28;20408;-66
2021/01/09 00:37:12;;;;;;;8.83;4.63;;;;;;;0.74;92.02;101461.13;5012462;28;20494;-66
2021/01/09 00:39:38;;;;;;;8.07;4.10;;;;;;;0.79;92.19;101461.72;5011911;28;20479;-66
2021/01/09 00:42:03;;;;;;;9.50;4.93;;;;;;;0.77;92.13;101462.72;5011705;28;20042;-66
2021/01/09 00:44:28;;;;;;;8.27;4.40;;;;;;;0.80;92.14;101458.16;5012725;28;20427;-66
2021/01/09 00:46:58;;;;;;;11.90;4.83;;;;;;;0.78;91.99;101470.53;5012365;28;20105;-66
2021/01/09 00:49:24;;;;;;;9.25;4.32;;;;;;;0.82;91.89;101466.84;5012402;28;20037;-66
2021/01/09 00:51:50;;;;;;;7.15;4.30;;;;;;;0.83;91.85;101473.78;5011530;28;20498;-66
2021/01/09 00:54:15;;;;;;;12.37;5.60;;;;;;;0.89;91.73;101466.47;5012460;28;20038;-66
2021/01/09 00:56:41;;;;;;;9.02;4.13;;;;;;;0.89;91.79;101480.50;5011089;28;20057;-66
2021/01/09 00:59:06;;;;;;;13.00;5.28;;;;;;;0.82;91.93;101473.88;5012366;28;20065;-66
2021/01/09 01:01:32;;;;;;;14.43;5.13;;;;;;;0.83;91.81;101479.03;5012376;28;20113;-67
2021/01/09 01:03:57;;;;;;;10.63;6.00;;;;;;;0.85;91.63;101481.59;5012275;28;20038;-66
2021/01/09 01:06:24;;;;;;;10.77;5.00;;;;;;;0.88;91.92;101481.41;5010361;28;20059;-66
2021/01/09 01:08:49;;;;;;;;;;;;;;;0.87;91.82;101494.63;5012657;28;20034;-66
2021/01/09 01:11:21;;;;;;;;;;;;;;;0.83;91.61;101486.91;4995182;28;19928;-66
2021/01/09 01:13:46;;;;;;;11.88;5.80;;;;;;;0.88;91.62;101488.47;5012108;28;20348;-66
2021/01/09 01:16:14;;;;;;;11.57;4.73;;;;;;;0.92;91.40;101498.72;4994487;28;20100;-66
2021/01/09 01:18:39;;;;;;;13.85;5.90;;;;;;;0.93;91.44;101495.16;5010841;28;20543;-66
2021/01/09 01:21:05;;;;;;;13.37;6.23;;;;;;;0.93;91.34;101502.19;5011201;28;20042;-66
2021/01/09 01:23:30;;;;;;;11.07;5.63;;;;;;;0.90;91.54;101499.75;5011967;28;20034;-66
2021/01/09 01:25:56;;;;;;;14.50;5.50;;;;;;;0.95;91.44;101495.09;5011694;28;20345;-66
2021/01/09 01:28:21;;;;;;;9.13;4.93;;;;;;;0.92;91.70;101504.00;5010897;28;20053;-66
2021/01/09 01:30:49;;;;;;;12.70;6.47;;;;;;;0.94;91.59;101507.38;5011751;28;20038;-66
2021/01/09 01:33:14;;;;;;;15.98;7.00;;;;;;;0.91;91.61;101502.28;5011600;28;20108;-66
2021/01/09 01:35:39;;;;;;;12.67;7.03;;;;;;;0.94;91.63;101504.75;5011650;28;20717;-66
2021/01/09 01:38:05;;;;;;;10.37;5.00;;;;;;;1.05;91.40;101505.03;5011735;28;20033;-66
2021/01/09 01:40:30;;;;;;;11.63;5.67;;;;;;;0.94;91.98;101501.28;5011788;28;20534;-66
2021/01/09 01:42:55;;;;;;;13.00;6.37;;;;;;;0.96;91.74;101504.66;5010793;28;20357;-66
2021/01/09 01:45:21;;;;;;;15.10;6.63;;;;;;;0.94;91.61;101509.19;5011753;28;20371;-65
2021/01/09 01:47:47;;;;;;;13.87;7.23;;;;;;;0.91;91.87;101507.53;5010422;28;20376;-65
2021/01/09 01:50:13;;;;;;;13.68;6.03;;;;;;;0.95;91.84;101509.06;5010550;28;20439;-65
2021/01/09 01:52:39;;;;;;;13.95;6.35;;;;;;;0.99;91.69;101512.41;5011599;28;20072;-65
2021/01/09 01:55:05;;;;;;;14.85;6.00;;;;;;;1.02;91.98;101522.75;5011536;28;20084;-65
2021/01/09 01:57:30;;;;;;;10.85;5.70;;;;;;;1.07;91.58;101518.09;5011129;28;20037;-65
2021/01/09 01:59:55;;;;;;;13.23;6.63;;;;;;;1.01;92.10;101523.69;5010505;28;20042;-65
2021/01/09 02:02:21;;;;;;;19.37;6.83;;;;;;;0.91;91.58;101514.56;5010558;28;20060;-65
2021/01/09 02:04:53;;;;;;;12.90;6.82;;;;;;;0.95;91.94;101516.13;5011370;28;20034;-65
2021/01/09 02:07:22;;;;;;;16.08;8.30;;;;;;;0.97;91.81;101527.41;5011125;28;20116;-65
2021/01/09 02:09:50;;;;;;;22.50;6.95;;;;;;;0.98;91.77;101526.47;5011323;28;20037;-65
2021/01/09 02:12:29;;;;;;;13.73;7.22;;;;;;;0.96;92.04;101523.06;5010395;28;20045;-65
2021/01/09 02:15:00;;;;;;;21.92;7.88;;;;;;;1.00;92.13;101524.59;5010323;28;20038;-66
2021/01/09 02:17:26;;;;;;;15.38;6.45;;;;;;;0.90;91.87;101526.03;5011454;28;20139;-66
2021/01/09 02:19:57;;;;;;;10.98;5.78;;;;;;;0.87;91.81;101521.78;5015355;28;20085;-66
2021/01/09 02:22:23;;;;;;;13.68;5.40;;;;;;;0.71;91.49;101529.63;5015316;28;20038;-66
2021/01/09 02:24:49;;;;;;;;;;;;;;;0.69;91.27;101520.97;5014746;28;20049;-66
2021/01/09 02:27:15;;;;;;;8.52;4.20;;;;;;;0.61;91.37;101528.41;4997481;28;19913;-66
2021/01/09 02:30:02;;;;;;;9.32;5.20;;;;;;;0.56;91.13;101530.41;5015121;28;20049;-66
2021/01/09 02:32:32;;;;;;;14.85;5.63;;;;;;;0.50;91.45;101528.97;5014121;28;20052;-66
2021/01/09 02:35:00;;;;;;;8.23;4.57;;;;;;;0.44;91.44;101534.50;5014118;28;20065;-66
2021/01/09 02:37:25;;;;;;;8.65;4.78;;;;;;;0.41;91.76;101535.53;5013659;28;20041;-66
2021/01/09 02:39:52;;;;;;;10.75;5.60;;;;;;;0.41;91.42;101538.16;5013989;28;20041;-66
2021/01/09 02:42:19;;;;;;;11.55;5.75;;;;;;;0.38;91.57;101540.94;5013953;28;20037;-66
2021/01/09 02:44:47;;;;;;;11.18;4.40;;;;;;;0.35;91.56;101535.84;5013941;28;20040;-66
2021/01/09 02:47:13;;;;;;;9.20;4.65;;;;;;;0.34;91.50;101539.38;5013720;28;20380;-66
2021/01/09 02:49:38;;;;;;;13.43;5.47;;;;;;;0.34;91.38;101542.00;4997448;28;20120;-66
2021/01/09 02:52:04;;;;;;;10.30;5.70;;;;;;;0.24;91.43;101535.53;5014707;28;20521;-66
2021/01/09 02:54:29;;;;;;;9.53;5.50;;;;;;;0.35;91.52;101543.72;5014505;28;20391;-66
2021/01/09 02:56:54;;;;;;;12.20;6.10;;;;;;;0.26;91.70;101551.19;5014461;28;20299;-66
2021/01/09 02:59:19;;;;;;;14.03;5.60;;;;;;;0.27;91.42;101551.13;5014595;28;20038;-66
2021/01/09 03:01:48;;;;;;;12.63;5.87;;;;;;;0.27;91.47;101551.13;5014643;28;20034;-66
2021/01/09 03:04:14;;;;;;;12.27;6.30;;;;;;;0.19;91.51;101548.88;5014477;28;20045;-66
2021/01/09 03:06:39;;;;;;;12.07;6.70;;;;;;;0.14;91.71;101555.28;5013212;28;20038;-66
2021/01/09 03:09:04;;;;;;;14.97;6.27;;;;;;;0.15;91.53;101546.50;5014303;28;20033;-66
2021/01/09 03:11:30;;;;;;;14.03;6.97;;;;;;;0.12;91.82;101551.91;4997134;28;20052;-66
2021/01/09 03:13:55;;;;;;;14.83;7.03;;;;;;;0.11;91.79;101558.06;5014398;28;20088;-66
2021/01/09 03:16:20;;;;;;;15.43;7.23;;;;;;;0.16;91.95;101556.06;4996800;28;20041;-66
2021/01/09 03:18:46;;;;;;;18.40;7.50;;;;;;;0.20;91.89;101562.88;5013378;28;20041;-66
2021/01/09 03:21:11;;;;;;;12.83;6.30;;;;;;;0.12;91.70;101557.16;5013428;28;20033;-66
2021/01/09 03:23:36;;;;;;;12.60;7.00;;;;;;;0.20;91.84;101557.63;5013121;28;20080;-66
2021/01/09 03:26:02;;;;;;;16.53;6.57;;;;;;;0.24;91.94;101563.59;5014041;28;20041;-66
2021/01/09 03:28:27;;;;;;;15.15;6.40;;;;;;;0.24;92.16;101567.06;5012519;28;20117;-66
2021/01/09 03:30:53;;;;;;;15.90;7.93;;;;;;;0.24;92.23;101574.09;5013200;28;20509;-66
2021/01/09 03:33:18;;;;;;;17.47;8.43;;;;;;;0.21;92.22;101559.31;5014174;28;20452;-66
2021/01/09 03:35:44;;;;;;;15.93;7.75;;;;;;;0.31;91.93;101564.97;5013734;28;20341;-66
2021/01/09 03:38:10;;;;;;;15.15;7.95;;;;;;;0.34;92.08;101570.06;5012721;28;20128;-66
2021/01/09 03:40:35;;;;;;;18.60;9.75;;;;;;;0.32;92.19;101567.50;5012865;28;20858;-66
2021/01/09 03:43:00;;;;;;;23.07;8.70;;;;;;;0.30;92.06;101571.13;5013873;28;20041;-66
2021/01/09 03:45:26;;;;;;;17.75;9.02;;;;;;;0.36;92.29;101579.56;5013703;28;20092;-66
2021/01/09 03:47:51;;;;;;;17.07;8.70;;;;;;;0.35;92.39;101577.00;5013532;28;20065;-66
2021/01/09 03:50:16;;;;;;;21.90;9.07;;;;;;;0.39;92.14;101583.81;4996405;28;20127;-66
2021/01/09 03:52:42;;;;;;;18.60;9.13;;;;;;;0.38;91.91;101582.13;4996338;28;20042;-66
2021/01/09 03:55:08;;;;;;;20.13;9.50;;;;;;;0.39;92.19;101584.66;5013527;28;20065;-66
2021/01/09 03:57:33;;;;;;;24.00;10.40;;;;;;;0.38;92.34;101582.13;5013285;28;20042;-66
2021/01/09 03:59:58;;;;;;;18.60;9.67;;;;;;;0.40;91.75;101585.53;4996278;28;20041;-66
2021/01/09 04:02:24;;;;;;;20.73;10.30;;;;;;;0.39;91.81;101579.41;5012672;28;20068;-66
2021/01/09 04:04:49;;;;;;;22.83;11.33;;;;;;;0.41;91.95;101582.81;4996000;28;20038;-66
2021/01/09 04:07:14;;;;;;;21.30;9.40;;;;;;;0.44;92.17;101589.69;5013008;28;20034;-66
2021/01/09 04:09:40;;;;;;;19.80;9.17;;;;;;;0.50;91.99;101584.13;5013233;28;20107;-66
2021/01/09 04:12:05;;;;;;;22.80;10.60;;;;;;;0.43;91.72;101582.75;5012273;28;20076;-66
2021/01/09 04:14:31;;;;;;;21.23;11.00;;;;;;;0.45;91.51;101587.94;5013139;28;20046;-66
2021/01/09 04:16:57;;;;;;;20.77;11.07;;;;;;;0.39;91.99;101595.16;5012968;28;20513;-66
2021/01/09 04:19:22;;;;;;;24.50;11.05;;;;;;;0.48;91.76;101600.91;4995837;28;20531;-66
2021/01/09 04:21:52;;;;;;;18.83;10.50;;;;;;;0.40;91.70;101602.13;5012243;28;20037;-66
2021/01/09 04:24:19;;;;;;;23.55;10.10;;;;;;;0.39;91.93;101597.78;5012153;28;20037;-66
2021/01/09 04:26:44;;;;;;;22.77;10.70;;;;;;;0.37;91.65;101604.91;5012741;28;20069;-66
2021/01/09 04:29:10;;;;;;;22.87;12.13;;;;;;;0.34;91.81;101606.84;5012029;28;20491;-66
2021/01/09 04:31:35;;;;;;;20.73;10.27;;;;;;;0.33;91.77;101603.38;5012936;28;20301;-66
2021/01/09 04:34:00;;;;;;;23.80;12.10;;;;;;;0.31;91.78;101607.84;5011912;28;20041;-66
2021/01/09 04:36:25;;;;;;;31.17;12.90;;;;;;;0.33;91.88;101610.41;5012490;28;20033;-65
2021/01/09 04:38:51;;;;;;;27.37;11.47;;;;;;;0.28;91.82;101612.38;5011668;28;20558;-66
2021/01/09 04:41:20;;;;;;;22.23;11.17;;;;;;;0.35;92.03;101614.66;4994346;28;20443;-66
2021/01/09 04:43:49;;;;;;;25.98;11.05;;;;;;;0.35;91.98;101625.16;5011528;28;20037;-65
2021/01/09 04:46:16;;;;;;;25.00;12.65;;;;;;;0.38;92.03;101616.28;5011478;28;20034;-66
2021/01/09 04:48:41;;;;;;;25.15;12.80;;;;;;;0.34;92.18;101620.81;5012533;28;20402;-65
2021/01/09 04:51:07;;;;;;;24.70;11.27;;;;;;;0.35;91.82;101625.16;4995040;28;20052;-66
2021/01/09 04:53:35;;;;;;;25.38;12.50;;;;;;;0.39;91.84;101631.94;5011660;28;20046;-65
2021/01/09 04:56:01;;;;;;;25.48;11.93;;;;;;;0.34;91.79;101630.47;5012293;28;20045;-66
2021/01/09 04:58:26;;;;;;;28.95;11.65;;;;;;;0.30;91.82;101635.03;5012445;28;20121;-65
2021/01/09 05:00:54;;;;;;;26.38;12.82;;;;;;;0.23;92.02;101638.88;5011379;28;20514;-66
2021/01/09 05:03:21;;;;;;;25.27;12.77;;;;;;;0.26;91.80;101633.50;5011540;28;20107;-66
2021/01/09 05:05:47;;;;;;;27.73;11.07;;;;;;;0.26;91.90;101646.63;5011752;28;20557;-66
2021/01/09 05:08:12;;;;;;;28.20;12.43;;;;;;;0.19;91.64;101642.59;5012209;28;20044;-65
2021/01/09 05:10:38;;;;;;;28.87;11.87;;;;;;;0.18;91.76;101646.13;5012646;28;20037;-74
2021/01/09 05:13:05;;;;;;;24.83;12.23;;;;;;;0.16;91.60;101646.22;5012335;28;20056;-65
2021/01/09 05:15:37;;;;;;;25.48;12.57;;;;;;;0.12;91.86;101643.81;5011012;28;20037;-65
2021/01/09 05:18:03;;;;;;;27.77;13.02;;;;;;;0.15;91.98;101647.13;5011939;28;20459;-66
2021/01/09 05:20:29;;;;;;;28.10;12.05;;;;;;;0.13;91.79;101640.25;5011887;28;20034;-66
2021/01/09 05:22:55;;;;;;;26.60;12.60;;;;;;;0.12;91.63;101649.91;5011999;28;20044;-65
2021/01/09 05:25:27;;;;;;;27.15;12.50;;;;;;;0.14;91.91;101650.69;5011941;28;20045;-65
2021/01/09 05:27:57;;;;;;;24.85;11.88;;;;;;;0.11;91.61;101649.97;5011833;28;20470;-65
2021/01/09 05:30:24;;;;;;;29.25;12.25;;;;;;;0.11;91.83;101652.59;5011807;28;20120;-65
2021/01/09 05:32:50;;;;;;;24.73;12.07;;;;;;;0.01;91.41;101659.22;5010811;28;20478;-65
2021/01/09 05:35:17;;;;;;;22.55;10.27;;;;;;;-0.08;91.64;101658.72;5011557;28;20064;-65
2021/01/09 05:37:50;;;;;;;25.55;11.90;;;;;;;-0.04;91.78;101659.44;5010588;28;20099;-65
2021/01/09 05:40:16;;;;;;;23.67;11.10;;;;;;;-0.07;91.80;101665.69;5011719;28;20048;-65
2021/01/09 05:42:42;;;;;;;;;;;;;;;-0.11;91.98;101666.75;5012216;28;20037;-65
2021/01/09 05:45:10;;;;;;;24.90;11.18;;;;;;;-0.19;91.76;101658.34;5011634;28;20262;-65
2021/01/09 05:47:37;;;;;;;24.75;12.02;;;;;;;-0.15;91.91;101662.53;5011320;28;20575;-65
2021/01/09 05:50:04;;;;;;;28.63;12.38;;;;;;;-0.19;92.12;101665.38;5011451;28;20048;-65
2021/01/09 05:52:29;;;;;;;30.60;14.32;;;;;;;-0.17;92.20;101659.13;5010384;28;20045;-65
2021/01/09 05:55:00;;;;;;;33.97;13.37;;;;;;;-0.07;92.23;101670.94;5011527;28;20045;-65
2021/01/09 05:57:31;;;;;;;28.98;14.80;;;;;;;-0.06;92.33;101672.63;5010363;28;20209;-65
2021/01/09 06:00:01;;;;;;;27.98;13.00;;;;;;;-0.05;92.38;101674.34;5011468;28;20379;-65
2021/01/09 06:02:27;;;;;;;27.50;12.45;;;;;;;-0.06;92.41;101675.25;5011595;28;20045;-65
2021/01/09 06:04:59;;;;;;;28.85;12.82;;;;;;;-0.02;92.30;101679.44;5010352;28;20037;-65
2021/01/09 06:07:33;;;;;;;27.17;12.35;;;;;;;-0.02;92.19;101681.22;5010277;28;20439;-65
2021/01/09 06:10:08;;;;;;;26.98;11.75;;;;;;;0.00;92.36;101687.25;5011454;28;20126;-65
2021/01/09 06:13:00;;;;;;;29.98;13.13;;;;;;;-0.09;92.31;101688.53;5011337;28;20515;-65
2021/01/09 06:15:30;;;;;;;22.27;10.82;;;;;;;-0.10;92.34;101692.06;5011380;28;20452;-65
2021/01/09 06:17:59;;;;;;;25.58;11.18;;;;;;;-0.12;92.29;101696.53;5011154;28;20037;-65
2021/01/09 06:20:25;;;;;;;26.83;12.90;;;;;;;-0.11;92.25;101698.25;5010295;28;20030;-65
2021/01/09 06:22:52;;;;;;;23.38;11.77;;;;;;;-0.03;92.30;101698.72;5010216;28;20079;-65
2021/01/09 06:25:17;;;;;;;24.25;11.00;;;;;;;-0.07;92.12;101699.81;5010295;28;20041;-65
2021/01/09 06:27:49;;;;;;;22.40;11.40;;;;;;;-0.07;92.19;101698.94;5010956;28;20092;-65
2021/01/09 06:30:19;;;;;;;26.23;11.02;;;;;;;-0.16;92.28;101707.25;5011208;28;20049;-65
2021/01/09 06:32:54;;;;;;;23.23;10.90;;;;;;;-0.15;92.44;101709.78;5010239;28;20061;-65
2021/01/09 06:35:20;;;;;;;24.52;10.88;;;;;;;-0.06;92.18;101713.78;5010068;28;20049;-65
2021/01/09 06:37:46;;;;;;;;;;;;;;;-0.09;92.31;101712.16;5010350;28;20038;-65
2021/01/09 06:40:12;;;;;;;21.42;9.90;;;;;;;-0.04;92.52;101719.81;5010295;28;19917;-66
2021/01/09 06:42:38;;;;;;;24.73;10.32;;;;;;;-0.04;92.32;101718.03;5010146;28;20093;-66
2021/01/09 06:45:04;;;;;;;19.77;8.25;;;;;;;-0.04;92.20;101723.28;5010166;28;20037;-66
2021/01/09 06:47:30;;;;;;;21.20;9.57;;;;;;;-0.04;92.50;101725.91;5009719;28;20060;-66
2021/01/09 06:50:18;;;;;;;21.10;10.38;;;;;;;0.02;92.52;101727.41;5010757;28;20448;-66
2021/01/09 06:52:52;;;;;;;22.63;10.90;;;;;;;0.06;92.46;101726.34;5010955;28;20057;-73
2021/01/09 06:55:37;;;;;;;23.42;11.40;;;;;;;0.06;92.43;101733.38;5011017;28;20044;-73
2021/01/09 06:58:10;;;;;;;22.15;10.15;;;;;;;0.11;92.41;101731.38;5010719;28;20034;-73
2021/01/09 07:00:36;;;;;;;24.38;11.10;;;;;;;0.04;92.37;101737.84;5010096;28;20137;-73
2021/01/09 07:03:14;;;;;;;25.73;11.45;;;;;;;0.02;92.29;101742.31;5010051;28;20046;-73
2021/01/09 07:05:50;;;;;;;24.58;11.30;;;;;;;-0.03;92.30;101738.09;5014400;28;20041;-73
2021/01/09 07:08:22;;;;;;;31.63;12.75;;;;;;;0.53;93.57;101748.69;5014667;28;20053;-73
2021/01/09 07:10:50;;;;;;;22.35;12.25;;;;;;;0.33;92.58;101742.59;5014296;28;20038;-73
2021/01/09 07:13:16;;;;;;;31.17;13.57;;;;;;;0.19;92.20;101745.03;4997250;28;20045;-73
2021/01/09 07:15:42;;;;;;;25.33;11.63;;;;;;;0.13;92.31;101750.53;5014333;28;20045;-73
2021/01/09 07:18:08;;;;;;;27.90;11.95;;;;;;;0.07;92.23;101750.81;5014359;28;20117;-73
2021/01/09 07:20:44;;;;;;;27.83;13.52;;;;;;;-0.02;92.14;101750.34;5013485;28;20048;-74
2021/01/09 07:23:14;;;;;;;33.72;13.07;;;;;;;-0.02;92.20;101752.94;5013296;28;20046;-73
2021/01/09 07:25:42;;;;;;;42.58;16.13;;;;;;;0.00;92.39;101755.53;5014000;28;20038;-73
2021/01/09 07:28:15;;;;;;;32.08;15.38;;;;;;;0.07;92.30;101761.31;5013162;28;20117;-73
2021/01/09 07:30:41;;;;;;;44.13;18.13;;;;;;;0.07;92.31;101758.69;5013001;28;20056;-73
2021/01/09 07:33:09;;;;;;;40.95;15.40;;;;;;;0.09;92.36;101764.72;5014094;28;20037;-73
2021/01/09 07:35:37;;;;;;;35.10;14.93;;;;;;;0.11;92.66;101762.88;5012982;28;20041;-73
2021/01/09 07:38:04;;;;;;;34.47;14.95;;;;;;;0.11;92.30;101755.84;5013864;28;20036;-74
2021/01/09 07:40:43;;;;;;;35.42;17.02;;;;;;;0.08;92.44;101768.28;5013848;28;20034;-73
2021/01/09 07:43:41;;;;;;;37.90;18.23;;;;;;;0.08;92.36;101769.13;5013912;28;20045;-74
2021/01/09 07:46:27;;;;;;;38.13;16.02;;;;;;;0.09;92.44;101769.97;5012417;28;20061;-73
2021/01/09 07:48:52;;;;;;;39.05;15.77;;;;;;;0.23;92.84;101771.97;5012762;28;20076;-73
2021/01/09 07:51:18;;;;;;;38.70;16.08;;;;;;;0.26;92.72;101779.72;5013534;28;20069;-73
2021/01/09 07:53:48;;;;;;;40.78;16.70;;;;;;;0.23;92.78;101783.34;5013703;28;20100;-73
2021/01/09 07:56:38;;;;;;;36.10;16.42;;;;;;;0.28;92.70;101781.38;5012437;28;20049;-74
2021/01/09 07:59:05;;;;;;;41.92;19.52;;;;;;;0.28;92.53;101785.75;5012623;28;20038;-73
2021/01/09 08:01:50;;;;;;;;;;;;;;;0.28;92.77;101791.00;4996631;28;20038;-73
2021/01/09 08:04:15;;;;;;;46.55;17.88;;;;;;;0.24;92.46;101787.69;5045497;28;20232;-74
2021/01/09 08:06:42;;;;;;;40.13;16.77;;;;;;;0.25;92.61;101786.75;5013266;28;20092;-73
2021/01/09 08:09:08;;;;;;;44.85;17.58;;;;;;;0.28;92.59;101791.00;5013366;28;20044;-73
2021/01/09 08:11:44;;;;;;;49.53;18.95;;;;;;;0.27;92.61;101786.69;5013285;28;20439;-73
2021/01/09 08:14:13;;;;;;;;;;;;;;;0.33;92.75;101792.50;4996483;28;20037;-73
2021/01/09 08:16:39;;;;;;;43.30;17.50;;;;;;;0.34;92.76;101802.09;5012994;28;20385;-73
2021/01/09 08:19:14;;;;;;;40.92;17.58;;;;;;;0.34;92.72;101799.47;5012323;28;20037;-73
2021/01/09 08:21:40;;;;;;;42.13;18.00;;;;;;;0.34;92.43;101801.25;5012137;28;20419;-74
2021/01/09 08:24:05;;;;;;;41.72;17.45;;;;;;;0.38;92.59;101808.06;5013152;28;20033;-73
2021/01/09 08:26:32;;;;;;;51.47;18.58;;;;;;;0.41;92.70;101806.13;5012795;28;20069;-74
2021/01/09 08:28:58;;;;;;;51.35;18.88;;;;;;;0.41;92.73;101813.16;5012981;28;20114;-73
2021/01/09 08:31:25;;;;;;;47.35;17.85;;;;;;;0.41;92.57;101802.66;5011987;28;20030;-73
2021/01/09 08:33:50;;;;;;;42.35;18.27;;;;;;;0.45;92.62;101809.47;5012002;28;20458;-73
2021/01/09 08:36:16;;;;;;;41.67;17.53;;;;;;;0.46;92.56;101818.22;4995227;28;20116;-73
2021/01/09 08:38:43;;;;;;;43.03;17.90;;;;;;;0.48;92.68;101819.00;5013006;28;20387;-73
2021/01/09 08:41:08;;;;;;;45.25;18.55;;;;;;;0.39;92.64;101815.84;5011760;28;20444;-74
2021/01/09 08:43:33;;;;;;;42.20;18.10;;;;;;;0.39;92.54;101823.72;5012855;28;20038;-74
2021/01/09 08:45:59;;;;;;;40.47;18.65;;;;;;;0.46;92.45;101821.69;5011655;28;20037;-73
2021/01/09 08:48:29;;;;;;;43.20;17.30;;;;;;;0.48;92.54;101824.25;5012710;28;20125;-73
2021/01/09 08:51:08;;;;;;;40.05;19.55;;;;;;;0.46;92.72;101826.94;5012544;28;20448;-73
2021/01/09 08:53:55;;;;;;;44.90;18.65;;;;;;;0.45;92.48;101820.00;4995668;28;20065;-66
2021/01/09 08:56:22;;;;;;;44.38;17.65;;;;;;;0.46;92.36;101820.84;5010944;28;20034;-66
2021/01/09 08:58:47;;;;;;;46.72;19.05;;;;;;;0.53;92.56;101830.13;5011562;28;20053;-66
2021/01/09 09:01:14;;;;;;;40.23;17.87;;;;;;;0.56;92.54;101819.47;5011348;28;20372;-66
2021/01/09 09:03:44;;;;;;;43.17;18.38;;;;;;;0.60;92.53;101831.56;5011274;28;20057;-66
2021/01/09 09:06:13;;;;;;;38.58;16.85;;;;;;;0.59;92.50;101835.97;5011112;28;20041;-66
2021/01/09 09:08:39;;;;;;;46.88;18.27;;;;;;;0.58;92.25;101842.13;5044362;28;20037;-66
2021/01/09 09:11:05;;;;;;;37.17;15.80;;;;;;;0.58;92.40;101842.13;5011111;28;20045;-66
2021/01/09 09:13:31;;;;;;;39.23;16.83;;;;;;;0.58;92.30;101849.16;5012183;28;20121;-66
2021/01/09 09:15:57;;;;;;;41.17;18.02;;;;;;;0.62;92.24;101850.75;5012117;28;20061;-66
2021/01/09 09:18:22;;;;;;;34.97;15.82;;;;;;;0.60;92.13;101849.94;5010755;28;20037;-66
2021/01/09 09:20:51;;;;;;;36.73;16.43;;;;;;;0.60;91.93;101853.44;5011201;28;20606;-66
2021/01/09 09:23:24;;;;;;;37.67;16.52;;;;;;;0.67;92.04;101854.00;4994637;28;20604;-66
2021/01/09 09:26:05;;;;;;;48.72;17.45;;;;;;;0.53;91.65;101848.53;4994333;28;20087;-66
2021/01/09 09:28:42;;;;;;;44.45;19.33;;;;;;;0.56;91.83;101858.91;4994384;28;20038;-66
2021/01/09 09:31:17;;;;;;;35.97;16.17;;;;;;;0.50;91.85;101859.19;5011873;28;20054;-66
2021/01/09 09:33:54;;;;;;;41.42;16.65;;;;;;;0.45;92.15;101859.41;5011786;28;20045;-66
2021/01/09 09:36:19;;;;;;;38.63;17.58;;;;;;;0.48;92.06;101867.13;5011534;28;20037;-66
2021/01/09 09:38:45;;;;;;;44.20;18.93;;;;;;;0.46;91.99;101857.63;5011607;28;20057;-66
2021/01/09 09:41:10;;;;;;;44.23;17.40;;;;;;;0.33;92.08;101862.59;5011739;28;20042;-66
2021/01/09 09:43:35;;;;;;;44.67;17.37;;;;;;;0.41;92.21;101860.47;5010640;28;20038;-66
2021/01/09 09:46:03;;;;;;;45.30;18.43;;;;;;;0.45;92.20;101871.69;5010654;28;20129;-66
2021/01/09 09:48:37;;;;;;;47.30;19.20;;;;;;;0.47;92.26;101860.19;5011602;28;20044;-66
2021/01/09 09:51:09;;;;;;;36.55;17.55;;;;;;;0.49;92.16;101857.47;5010533;28;20436;-66
2021/01/09 09:53:39;;;;;;;48.47;17.95;;;;;;;0.43;92.15;101857.78;5010606;28;20137;-66
2021/01/09 09:56:18;;;;;;;54.40;19.92;;;;;;;0.52;92.14;101859.97;5010364;28;20139;-66
2021/01/09 09:58:45;;;;;;;45.25;18.90;;;;;;;0.50;91.96;101860.03;5010579;28;20041;-66
2021/01/09 10:01:17;;;;;;;36.85;15.75;;;;;;;0.49;91.83;101862.72;5011005;28;20049;-66
2021/01/09 10:03:42;;;;;;;44.15;17.95;;;;;;;0.51;91.56;101860.88;4993834;28;20456;-66
2021/01/09 10:06:08;;;;;;;45.87;17.53;;;;;;;0.54;91.78;101860.75;5010081;28;20038;-66
2021/01/09 10:08:33;;;;;;;42.17;16.30;;;;;;;0.57;91.89;101860.63;5010470;28;20034;-66
2021/01/09 10:10:58;;;;;;;43.97;19.00;;;;;;;0.58;91.80;101859.69;5010304;28;20335;-66
2021/01/09 10:13:25;;;;;;;39.43;18.00;;;;;;;0.66;91.81;101872.50;5011373;28;20030;-66
2021/01/09 10:15:50;;;;;;;36.78;16.13;;;;;;;0.55;91.69;101867.72;5011061;28;20042;-66
2021/01/09 10:18:15;;;;;;;40.40;18.10;;;;;;;0.61;91.49;101872.69;5010101;28;20088;-65
2021/01/09 10:20:40;;;;;;;35.30;16.60;;;;;;;0.58;91.63;101872.81;5010419;28;20376;-65
2021/01/09 10:23:06;;;;;;;41.43;16.77;;;;;;;0.48;91.68;101876.81;5011412;28;20520;-65
2021/01/09 10:25:31;;;;;;;43.50;18.67;;;;;;;0.59;91.66;101877.16;5009948;28;20459;-65
2021/01/09 10:27:56;;;;;;;39.97;16.77;;;;;;;0.62;91.71;101871.75;5011258;28;20448;-65
2021/01/09 10:30:22;;;;;;;46.23;17.67;;;;;;;0.65;91.57;101879.50;5011216;28;20088;-65
2021/01/09 10:32:48;;;;;;;39.85;16.98;;;;;;;0.68;91.70;101878.50;5011047;28;20038;-65
2021/01/09 10:35:13;;;;;;;43.80;17.07;;;;;;;0.69;91.79;101878.44;5010097;28;20046;-65
2021/01/09 10:37:39;;;;;;;38.50;17.90;;;;;;;0.67;91.46;101876.81;5009981;28;20038;-65
2021/01/09 10:40:05;;;;;;;43.15;18.02;;;;;;;0.65;91.53;101876.03;4996968;28;20057;-65
2021/01/09 10:42:30;;;;;;;32.75;15.82;;;;;;;0.56;91.20;101875.53;5013987;28;20042;-65
2021/01/09 10:44:55;;;;;;;43.73;17.90;;;;;;;0.58;91.66;101868.41;5014135;28;20372;-65
2021/01/09 10:47:21;;;;;;;34.47;16.10;;;;;;;0.63;91.24;101865.56;5014451;28;20440;-65
2021/01/09 10:49:46;;;;;;;39.20;16.47;;;;;;;0.62;91.37;101871.75;5014861;28;20041;-64
2021/01/09 10:52:11;;;;;;;45.73;20.07;;;;;;;0.62;91.21;101871.75;5014636;28;20368;-64
2021/01/09 10:54:37;;;;;;;41.73;17.83;;;;;;;0.67;91.62;101867.13;5013919;28;20752;-64
2021/01/09 10:57:02;;;;;;;45.67;19.40;;;;;;;0.67;91.53;101861.88;5013394;28;20176;-64
2021/01/09 10:59:27;;;;;;;48.17;18.70;;;;;;;0.70;91.31;101861.72;5013823;28;20129;-64
2021/01/09 11:01:56;;;;;;;46.20;19.47;;;;;;;0.64;91.48;101859.41;5014562;28;20366;-64
2021/01/09 11:04:22;;;;;;;47.58;19.05;;;;;;;0.65;91.36;101858.47;5013458;28;20044;-66
2021/01/09 11:06:47;;;;;;;44.63;18.67;;;;;;;0.73;91.53;101860.75;5013567;28;20042;-66
2021/01/09 11:09:12;;;;;;;43.20;18.70;;;;;;;0.80;91.41;101857.75;5013598;28;20412;-66
2021/01/09 11:11:38;;;;;;;52.20;20.17;;;;;;;0.83;91.16;101862.03;5014319;28;20038;-66
2021/01/09 11:14:03;;;;;;;42.80;19.57;;;;;;;0.87;90.76;101862.72;5014371;28;20085;-66
2021/01/09 11:16:29;;;;;;;40.20;17.97;;;;;;;0.83;90.91;101865.50;5013100;28;20045;-66
2021/01/09 11:18:54;;;;;;;44.17;18.77;;;;;;;0.89;91.00;101866.13;5014282;28;20368;-66
2021/01/09 11:21:20;;;;;;;38.40;17.63;;;;;;;0.79;90.64;101865.72;5014293;28;20045;-66
2021/01/09 11:23:45;;;;;;;38.45;17.35;;;;;;;0.82;90.96;101874.31;5013318;28;20030;-66